Aviation Digital Data Service (ADDS)

Output produced by METARs form (0505 UTC 21 September 2017)
found at http://www.aviationweather.gov/adds/metars/
 
FCBB 210400Z 23004KT 8000 BKN020 25/20 Q1014 NOSIG
TAF FCBB 210500Z 2106/2212 26004KT 8000 BKN020
       
FCPP 210400Z 13006KT 7000 SCT008 OVC020 24/23 Q1013 NOSIG
TAF FCPP 210500Z 2106/2206 20006KT 8000 SCT010 OVC020